Isleta, NM (87022)

12:06 AM MST on February 07, 2016 (GMT -0700)
Peralta | | Change Station
CLOSE
Current Station
Personal Weather Station
Location: Peralta, NM
Elevation: 4882 ft
Nearby Weather Stations

Elev 4882 ft 34.84 °N, 106.67 °W | Updated 51 seconds ago

Clear
Clear
25.5 °F
Feels Like 26 °F
N
0.2
Wind Variable Wind from SSW
Gusts 2.5 mph

Today
High -- | Low -- °F
--% Chance of Precip.
Yesterday
High -- | Low -- °F
Precip. -- in
Pressure 30.35 in
Visibility 10.0 miles
Clouds Clear
Windchill 26 °F
Dew Point 10 °F
Humidity 51%
Rainfall 0.00 in
Snow Depth Not available.
7:00 AM 5:41 PM
Waning Crescent, 2% visible
METAR KABQ 070652Z 35009G19KT 10SM CLR 03/M10 A3038 RMK AO2 SLP278 T00331100 401001056
Pressure 30.35 in
Visibility 10.0 miles
Clouds Clear
Windchill 26 °F
Dew Point 10 °F
Humidity 51%
Rainfall 0.00 in
Snow Depth Not available.
7:00 AM 5:41 PM
Waning Crescent, 2% visible
METAR KABQ 070652Z 35009G19KT 10SM CLR 03/M10 A3038 RMK AO2 SLP278 T00331100 401001056

10-Day Weather Forecast

Almanac

Astronomy

Feb. 07, 2016 Rise Set
Actual Time
Civil Twilight
Nautical Twilight
Astronomical Twilight
Moon
Length of Visible Light
Length of Day
Tomorrow will be .
, % of the Moon is Illuminated

Today's Extremes

State Highs State Lows

Community

WunderPhotos

Upload Photos

1,891,174 photos uploaded!

WunderBlog® & News

Nearby

Air Quality

  Air Quality AQ Index Pollutant
Not available.

Snow Depth

Station Depth Elevation

Earthquake Activity

City Distance Mag. Time & Date
Minimum magnitude displayed is 2.5.

Coastal Water Temperatures

Place Temperature

Stations

Nearby Weather Stations

Station Location Temp. Windchill Dew Point Humidity Wind Precip. Elev Updated Type
                   

Watches & Warnings

There are currently no watches in effect.